Time;durP1;ratioP1;P1;durP2;ratioP2;P2;SDS_P1;SDS_P2;PMS_P1;PMS_P2;Temp;Humidity;BMP_temperature;BMP_pressure;BME280_temperature;BME280_humidity;BME280_pressure;Samples;Min_cycle;Max_cycle;Signal;HPM_P1;HPM_P2
2021/07/31 00:00:03;;;;;;;11.10;6.60;;;15.30;99.90;;;;;;5052686;28;20028;-38
2021/07/31 00:02:29;;;;;;;9.60;5.45;;;15.20;99.90;;;;;;5053737;28;20049;-39
2021/07/31 00:04:54;;;;;;;9.00;4.78;;;15.20;99.90;;;;;;5053842;28;20021;-38
2021/07/31 00:07:20;;;;;;;7.75;5.32;;;15.20;99.90;;;;;;5053765;28;20033;-38
2021/07/31 00:09:45;;;;;;;10.77;5.38;;;15.20;99.90;;;;;;5052281;28;20385;-38
2021/07/31 00:12:10;;;;;;;7.97;5.45;;;15.20;99.90;;;;;;5053608;28;20072;-38
2021/07/31 00:14:36;;;;;;;8.20;4.47;;;15.10;99.90;;;;;;5053663;28;20032;-41
2021/07/31 00:17:06;;;;;;;6.97;4.55;;;15.10;99.90;;;;;;5053626;28;20025;-38
2021/07/31 00:19:31;;;;;;;8.43;4.75;;;15.10;99.90;;;;;;5053543;28;20025;-38
2021/07/31 00:21:57;;;;;;;9.10;5.32;;;15.10;99.90;;;;;;5053547;28;20040;-38
2021/07/31 00:24:22;;;;;;;8.30;5.35;;;15.10;99.90;;;;;;5052003;28;20056;-38
2021/07/31 00:26:48;;;;;;;8.63;5.13;;;15.20;99.90;;;;;;5053495;28;20476;-38
2021/07/31 00:29:13;;;;;;;8.05;4.57;;;15.20;99.90;;;;;;5053240;28;20039;-38
2021/07/31 00:31:39;;;;;;;5.95;4.28;;;15.20;99.90;;;;;;5053329;28;20025;-38
2021/07/31 00:34:04;;;;;;;8.05;5.13;;;15.10;99.90;;;;;;5053336;28;20037;-40
2021/07/31 00:36:30;;;;;;;10.70;4.88;;;15.10;99.90;;;;;;5053259;28;20021;-38
2021/07/31 00:38:55;;;;;;;7.55;4.82;;;15.10;99.90;;;;;;5051791;28;20036;-40
2021/07/31 00:41:21;;;;;;;9.43;4.53;;;15.10;99.90;;;;;;5053130;28;20033;-39
2021/07/31 00:43:46;;;;;;;5.50;3.85;;;15.10;99.90;;;;;;5053147;28;20043;-38
2021/07/31 00:46:12;;;;;;;5.82;3.95;;;15.10;99.90;;;;;;5053069;28;20036;-38
2021/07/31 00:48:37;;;;;;;4.75;3.60;;;15.00;99.90;;;;;;5052999;28;20514;-38
2021/07/31 00:51:03;;;;;;;6.80;4.88;;;15.00;99.90;;;;;;5053028;28;20428;-38
2021/07/31 00:53:30;;;;;;;6.68;4.03;;;14.90;99.90;;;;;;5051598;28;20025;-40
2021/07/31 00:55:57;;;;;;;5.05;3.85;;;14.90;99.90;;;;;;5052905;28;20441;-38
2021/07/31 00:58:23;;;;;;;6.80;4.07;;;14.90;99.90;;;;;;5052907;28;20464;-38
2021/07/31 01:00:50;;;;;;;5.43;3.40;;;14.90;99.90;;;;;;5052423;28;20472;-38
2021/07/31 01:03:15;;;;;;;7.88;4.00;;;14.90;99.90;;;;;;5052628;28;20497;-38
2021/07/31 01:05:41;;;;;;;6.05;3.45;;;14.80;99.90;;;;;;5052883;28;20044;-37
2021/07/31 01:08:07;;;;;;;6.10;3.70;;;14.80;99.90;;;;;;5051259;28;20025;-38
2021/07/31 01:10:33;;;;;;;4.85;3.53;;;14.80;99.90;;;;;;5052668;28;20058;-38
2021/07/31 01:13:00;;;;;;;4.43;3.47;;;14.70;99.90;;;;;;5052700;28;20029;-40
2021/07/31 01:15:25;;;;;;;4.72;4.07;;;14.60;99.90;;;;;;5052632;28;20024;-38
2021/07/31 01:17:51;;;;;;;5.70;3.63;;;14.60;99.90;;;;;;5052682;28;20018;-39
2021/07/31 01:20:17;;;;;;;5.80;3.40;;;14.60;99.90;;;;;;5052691;28;20054;-40
2021/07/31 01:22:42;;;;;;;5.38;3.85;;;14.50;99.90;;;;;;5051870;28;20021;-38
2021/07/31 01:25:08;;;;;;;6.07;3.90;;;14.50;99.90;;;;;;5052188;28;20407;-40
2021/07/31 01:27:34;;;;;;;5.15;3.60;;;14.50;99.90;;;;;;5052642;28;20072;-38
2021/07/31 01:30:00;;;;;;;6.72;3.85;;;14.40;99.90;;;;;;5052553;28;20064;-38
2021/07/31 01:32:25;;;;;;;5.30;3.80;;;14.40;99.90;;;;;;5052573;28;20025;-38
2021/07/31 01:34:51;;;;;;;4.88;2.97;;;14.40;99.90;;;;;;5052584;28;20104;-39
2021/07/31 01:37:16;;;;;;;3.28;2.75;;;14.40;99.90;;;;;;5052422;28;20040;-38
2021/07/31 01:39:42;;;;;;;3.72;3.00;;;14.30;99.90;;;;;;5051208;28;20037;-38
2021/07/31 01:42:08;;;;;;;4.28;3.05;;;14.30;99.90;;;;;;5052523;28;20083;-38
2021/07/31 01:44:34;;;;;;;6.55;3.78;;;14.20;99.90;;;;;;5052385;28;20025;-38
2021/07/31 01:46:59;;;;;;;5.38;3.80;;;14.20;99.90;;;;;;5051175;28;20032;-38
2021/07/31 01:49:25;;;;;;;4.50;2.60;;;14.20;99.90;;;;;;5052310;28;20108;-39
2021/07/31 01:51:50;;;;;;;4.15;2.92;;;14.10;99.90;;;;;;5052395;28;20449;-38
2021/07/31 01:54:15;;;;;;;5.72;3.20;;;14.10;99.90;;;;;;5051011;28;20024;-38
2021/07/31 01:56:41;;;;;;;4.50;2.63;;;14.10;99.90;;;;;;5052332;28;20033;-38
2021/07/31 01:59:06;;;;;;;3.08;2.65;;;14.10;99.90;;;;;;5052353;28;20100;-41
2021/07/31 02:01:32;;;;;;;3.75;3.20;;;14.10;99.90;;;;;;5050965;28;20144;-38
2021/07/31 02:03:57;;;;;;;5.75;3.08;;;14.10;99.90;;;;;;5052119;28;20048;-38
2021/07/31 02:06:23;;;;;;;3.90;3.08;;;14.10;99.90;;;;;;5052195;28;20423;-38
2021/07/31 02:08:48;;;;;;;3.25;2.95;;;14.00;99.90;;;;;;5050959;28;20029;-40
2021/07/31 02:11:14;;;;;;;3.53;2.97;;;14.10;99.90;;;;;;5052200;28;20033;-38
2021/07/31 02:13:40;;;;;;;6.60;3.58;;;14.10;99.90;;;;;;5053501;28;20028;-38
2021/07/31 02:16:05;;;;;;;4.00;3.60;;;14.20;99.90;;;;;;5055900;28;20352;-38
2021/07/31 02:18:31;;;;;;;4.80;3.03;;;14.30;99.90;;;;;;5055806;28;20029;-38
2021/07/31 02:20:57;;;;;;;4.05;3.00;;;14.40;99.90;;;;;;5055810;28;20086;-41
2021/07/31 02:23:22;;;;;;;3.25;2.95;;;14.50;99.90;;;;;;5054313;28;20035;-38
2021/07/31 02:25:48;;;;;;;3.97;3.28;;;14.60;99.90;;;;;;5055734;28;20031;-42
2021/07/31 02:28:13;;;;;;;6.32;3.70;;;14.70;99.90;;;;;;5055614;28;20028;-38
2021/07/31 02:30:39;;;;;;;3.72;3.17;;;14.90;99.90;;;;;;5055784;28;20033;-38
2021/07/31 02:33:04;;;;;;;4.35;3.05;;;14.90;99.90;;;;;;5055642;28;20039;-39
2021/07/31 02:35:33;;;;;;;3.15;2.83;;;15.00;99.90;;;;;;5055539;28;20032;-38
2021/07/31 02:38:00;;;;;;;3.97;3.47;;;15.10;99.90;;;;;;5054044;28;20503;-41
2021/07/31 02:40:26;;;;;;;3.55;3.03;;;15.00;99.90;;;;;;5055369;28;20032;-38
2021/07/31 02:42:51;;;;;;;3.53;3.17;;;15.10;99.90;;;;;;5055363;28;20029;-39
2021/07/31 02:45:17;;;;;;;6.20;3.67;;;15.00;99.90;;;;;;5055327;28;20104;-38
2021/07/31 02:47:42;;;;;;;12.00;4.75;;;15.00;99.90;;;;;;5055204;28;20473;-40
2021/07/31 02:50:08;;;;;;;5.72;4.65;;;15.10;99.90;;;;;;5055279;28;20064;-39
2021/07/31 02:52:34;;;;;;;5.93;4.57;;;15.20;99.90;;;;;;5055071;28;20025;-38
2021/07/31 02:55:02;;;;;;;4.03;3.63;;;15.40;99.90;;;;;;5053907;28;20043;-38
2021/07/31 02:57:28;;;;;;;4.55;3.15;;;15.50;99.90;;;;;;5055121;28;20028;-38
2021/07/31 02:59:54;;;;;;;5.20;4.10;;;15.60;99.90;;;;;;5055101;28;20025;-39
2021/07/31 03:02:19;;;;;;;5.95;4.18;;;15.70;99.90;;;;;;5054916;28;20129;-40
2021/07/31 03:04:45;;;;;;;5.13;3.70;;;15.80;99.90;;;;;;5055040;28;20499;-38
2021/07/31 03:07:10;;;;;;;4.97;3.63;;;16.00;99.90;;;;;;5054821;28;20029;-38
2021/07/31 03:09:36;;;;;;;5.82;3.90;;;16.10;99.90;;;;;;5053580;28;20040;-38
2021/07/31 03:12:01;;;;;;;4.93;3.50;;;16.20;99.90;;;;;;5054869;28;20108;-38
2021/07/31 03:14:27;;;;;;;4.70;2.78;;;16.30;99.90;;;;;;5054780;28;20372;-38
2021/07/31 03:16:52;;;;;;;5.35;3.55;;;16.40;99.90;;;;;;5054796;28;20021;-38
2021/07/31 03:19:18;;;;;;;5.22;3.70;;;16.50;99.90;;;;;;5054753;28;20061;-39
2021/07/31 03:21:43;;;;;;;3.60;2.95;;;16.50;99.90;;;;;;5054565;28;20083;-39
2021/07/31 03:24:09;;;;;;;3.95;2.92;;;16.60;99.90;;;;;;5052997;28;20196;-38
2021/07/31 03:26:34;;;;;;;5.15;2.97;;;16.60;99.90;;;;;;5054560;28;20120;-38
2021/07/31 03:29:00;;;;;;;4.30;2.95;;;16.70;99.90;;;;;;5054585;28;20025;-38
2021/07/31 03:31:25;;;;;;;3.55;2.88;;;16.70;99.90;;;;;;5054548;28;20389;-39
2021/07/31 03:33:51;;;;;;;4.75;2.72;;;16.70;99.90;;;;;;5054512;28;20044;-38
2021/07/31 03:36:17;;;;;;;2.67;2.47;;;16.70;99.90;;;;;;5054421;28;20021;-38
2021/07/31 03:38:43;;;;;;;3.50;2.67;;;16.80;99.90;;;;;;5053055;28;20064;-38
2021/07/31 03:41:08;;;;;;;3.42;3.00;;;16.80;99.90;;;;;;5054361;28;20099;-40
2021/07/31 03:43:34;;;;;;;4.95;3.13;;;16.80;99.90;;;;;;5054213;28;20488;-39
2021/07/31 03:45:59;;;;;;;3.20;2.67;;;16.90;99.90;;;;;;5054251;28;20075;-38
2021/07/31 03:48:25;;;;;;;6.40;3.45;;;16.90;99.90;;;;;;5054092;28;20465;-40
2021/07/31 03:50:50;;;;;;;3.50;2.70;;;17.00;99.90;;;;;;5054067;28;20025;-39
2021/07/31 03:53:16;;;;;;;4.93;3.00;;;17.00;99.90;;;;;;5052813;28;20021;-39
2021/07/31 03:55:48;;;;;;;3.55;2.90;;;17.00;99.90;;;;;;5053996;28;20055;-38
2021/07/31 03:58:14;;;;;;;3.03;2.72;;;17.10;99.90;;;;;;5054082;28;20056;-38
2021/07/31 04:00:40;;;;;;;4.05;2.58;;;17.10;99.90;;;;;;5053866;28;20029;-38
2021/07/31 04:03:07;;;;;;;2.80;2.30;;;17.10;99.90;;;;;;5053810;28;20041;-38
2021/07/31 04:05:32;;;;;;;2.60;2.40;;;17.20;99.90;;;;;;5053634;28;20017;-39
2021/07/31 04:07:58;;;;;;;2.50;1.95;;;17.30;99.90;;;;;;5052419;28;20167;-38
2021/07/31 04:10:23;;;;;;;3.05;2.00;;;17.40;99.90;;;;;;5052455;28;20021;-38
2021/07/31 04:12:49;;;;;;;2.58;2.10;;;17.40;99.90;;;;;;5053549;28;20074;-38
2021/07/31 04:15:14;;;;;;;2.65;1.60;;;17.40;99.90;;;;;;5053684;28;20380;-40
2021/07/31 04:17:40;;;;;;;3.00;2.10;;;17.40;99.90;;;;;;5053575;28;20028;-38
2021/07/31 04:20:06;;;;;;;1.88;1.60;;;17.40;99.90;;;;;;5053480;28;20055;-39
2021/07/31 04:22:31;;;;;;;2.88;1.52;;;17.40;99.90;;;;;;5053576;28;20025;-38
2021/07/31 04:24:57;;;;;;;2.78;1.88;;;17.40;99.90;;;;;;5052176;28;20033;-38
2021/07/31 04:27:24;;;;;;;3.55;1.77;;;17.40;99.90;;;;;;5053506;28;20032;-38
2021/07/31 04:29:50;;;;;;;4.30;2.03;;;17.30;99.90;;;;;;5053294;28;20029;-38
2021/07/31 04:32:15;;;;;;;2.85;1.70;;;18.10;99.90;;;;;;5053408;28;20040;-38
2021/07/31 04:34:41;;;;;;;1.95;1.80;;;19.50;99.90;;;;;;5053210;28;20033;-39
2021/07/31 04:37:06;;;;;;;2.40;1.40;;;21.00;99.90;;;;;;5052589;28;20112;-38
2021/07/31 04:39:32;;;;;;;1.70;1.60;;;22.30;99.90;;;;;;5051929;28;20029;-38
2021/07/31 04:41:58;;;;;;;2.33;1.73;;;23.50;99.90;;;;;;5053195;28;20082;-40
2021/07/31 04:44:24;;;;;;;2.83;1.73;;;24.50;98.50;;;;;;5053197;28;20029;-39
2021/07/31 04:46:50;;;;;;;3.08;2.22;;;25.40;95.40;;;;;;5053134;28;20021;-40
2021/07/31 04:49:16;;;;;;;3.88;2.15;;;26.30;91.80;;;;;;5052918;28;20120;-39
2021/07/31 04:51:43;;;;;;;3.95;1.90;;;27.10;89.50;;;;;;5052997;28;20025;-38
2021/07/31 04:54:08;;;;;;;2.50;1.40;;;27.70;83.60;;;;;;5051746;28;20384;-41
2021/07/31 04:56:34;;;;;;;1.70;1.40;;;28.20;79.00;;;;;;5052912;28;20021;-41
2021/07/31 04:58:59;;;;;;;1.55;1.33;;;28.80;76.40;;;;;;5052939;28;20033;-39
2021/07/31 05:01:25;;;;;;;1.30;1.10;;;29.20;71.80;;;;;;5052979;28;20032;-39
2021/07/31 05:03:50;;;;;;;1.85;1.50;;;29.60;68.90;;;;;;5052560;28;20098;-40
2021/07/31 05:06:16;;;;;;;1.40;1.30;;;30.00;65.60;;;;;;5052892;28;20040;-41
2021/07/31 05:08:41;;;;;;;1.80;1.35;;;30.50;63.00;;;;;;5051464;28;20494;-41
2021/07/31 05:11:08;;;;;;;1.40;1.30;;;30.90;60.40;;;;;;5052941;28;20033;-40
2021/07/31 05:13:37;;;;;;;1.50;1.40;;;31.40;58.80;;;;;;5052818;28;20021;-39
2021/07/31 05:16:02;;;;;;;2.75;1.48;;;31.70;55.70;;;;;;5052740;28;20464;-39
2021/07/31 05:18:28;;;;;;;1.70;1.52;;;32.10;54.20;;;;;;5052691;28;20129;-40
2021/07/31 05:20:53;;;;;;;1.95;1.23;;;32.50;52.70;;;;;;5052675;28;20411;-42
2021/07/31 05:23:19;;;;;;;2.35;1.40;;;32.80;49.90;;;;;;5051431;28;20053;-41
2021/07/31 05:25:44;;;;;;;2.20;1.27;;;33.00;48.50;;;;;;5052628;28;20036;-39
2021/07/31 05:28:11;;;;;;;2.20;1.13;;;33.30;47.10;;;;;;5052582;28;20029;-39
2021/07/31 05:30:40;;;;;;;2.42;1.15;;;33.50;45.70;;;;;;5052596;28;20032;-39
2021/07/31 05:33:06;;;;;;;2.30;1.08;;;33.80;42.40;;;;;;5052486;28;20029;-42
2021/07/31 05:35:32;;;;;;;1.38;0.90;;;34.10;42.40;;;;;;5052563;28;20086;-42
2021/07/31 05:37:57;;;;;;;1.85;1.02;;;34.40;41.30;;;;;;5051224;28;20029;-39
2021/07/31 05:40:23;;;;;;;3.10;1.30;;;34.80;39.90;;;;;;5052548;28;20589;-41
2021/07/31 05:42:49;;;;;;;1.00;0.93;;;35.00;38.00;;;;;;5052449;28;20029;-42
2021/07/31 05:45:14;;;;;;;1.67;1.15;;;35.20;37.00;;;;;;5051218;28;20029;-41
2021/07/31 05:47:40;;;;;;;1.10;1.00;;;35.40;35.90;;;;;;5053898;28;20043;-40
2021/07/31 05:50:07;;;;;;;1.25;0.90;;;35.30;34.50;;;;;;5056510;28;20524;-40
2021/07/31 05:52:37;;;;;;;1.50;1.15;;;35.60;33.60;;;;;;5056100;28;20071;-41
2021/07/31 05:55:04;;;;;;;1.75;1.02;;;35.90;32.00;;;;;;5056139;28;20057;-39
2021/07/31 05:57:29;;;;;;;1.08;0.90;;;36.10;31.80;;;;;;5056246;28;20028;-40
2021/07/31 05:59:55;;;;;;;1.42;1.00;;;36.40;31.00;;;;;;5056254;28;20021;-39
2021/07/31 06:02:21;;;;;;;2.10;0.90;;;36.80;29.90;;;;;;5056037;28;20049;-41
2021/07/31 06:04:46;;;;;;;1.08;0.75;;;37.00;29.00;;;;;;5056201;28;20083;-40
2021/07/31 06:07:12;;;;;;;0.70;0.70;;;36.70;28.80;;;;;;5056168;28;20057;-40
2021/07/31 06:09:38;;;;;;;4.82;1.40;;;36.60;28.30;;;;;;5054965;28;20040;-40
2021/07/31 06:12:05;;;;;;;1.73;0.88;;;36.60;27.40;;;;;;5056011;28;20075;-42
2021/07/31 06:14:37;;;;;;;1.30;0.60;;;36.40;27.20;;;;;;5055943;28;20052;-39
2021/07/31 06:17:03;;;;;;;0.88;0.80;;;36.70;26.60;;;;;;5055835;28;20021;-41
2021/07/31 06:19:30;;;;;;;1.90;0.75;;;37.10;26.40;;;;;;5055902;28;20033;-41
2021/07/31 06:21:55;;;;;;;1.40;0.80;;;37.40;25.80;;;;;;5055854;28;20071;-40
2021/07/31 06:24:21;;;;;;;6.30;0.80;;;37.60;24.60;;;;;;5054558;28;20029;-41
2021/07/31 06:26:46;;;;;;;1.55;0.80;;;37.60;24.70;;;;;;5055685;28;20104;-39
2021/07/31 06:29:12;;;;;;;3.30;1.00;;;37.50;24.70;;;;;;5055662;28;20033;-40
2021/07/31 06:31:37;;;;;;;1.13;0.80;;;37.80;24.30;;;;;;5055604;28;20540;-40
2021/07/31 06:34:03;;;;;;;1.35;0.90;;;38.10;23.90;;;;;;5055564;28;20040;-40
2021/07/31 06:36:29;;;;;;;0.88;0.55;;;38.10;23.10;;;;;;5055538;28;20108;-43
2021/07/31 06:38:54;;;;;;;1.17;0.80;;;38.00;22.80;;;;;;5054228;28;20032;-40
2021/07/31 06:41:19;;;;;;;1.55;0.80;;;37.90;22.60;;;;;;5055479;28;20389;-43
2021/07/31 06:43:45;;;;;;;0.82;0.57;;;38.00;22.50;;;;;;5055361;28;20083;-42
2021/07/31 06:46:12;;;;;;;2.53;0.80;;;38.30;22.30;;;;;;5055266;28;20108;-40
2021/07/31 06:48:37;;;;;;;5.82;0.70;;;38.50;22.00;;;;;;5055322;28;20039;-40
2021/07/31 06:51:03;;;;;;;2.85;0.90;;;38.60;21.30;;;;;;5055270;28;20049;-39
2021/07/31 06:53:28;;;;;;;1.27;0.73;;;38.70;21.20;;;;;;5053973;28;20047;-40
2021/07/31 06:55:58;;;;;;;2.65;1.15;;;38.80;20.80;;;;;;5055207;28;20025;-40
2021/07/31 06:58:23;;;;;;;2.28;0.75;;;38.80;19.50;;;;;;5055007;28;20087;-40
2021/07/31 07:00:49;;;;;;;0.95;0.65;;;38.60;20.10;;;;;;5054410;28;20476;-40
2021/07/31 07:03:14;;;;;;;1.83;0.60;;;38.70;19.90;;;;;;5055010;28;20128;-41
2021/07/31 07:05:39;;;;;;;1.02;0.68;;;38.50;19.90;;;;;;5055047;28;20518;-40
2021/07/31 07:08:05;;;;;;;2.35;0.70;;;38.60;20.00;;;;;;5053620;28;20028;-40
2021/07/31 07:10:32;;;;;;;2.65;0.70;;;39.20;19.80;;;;;;5054948;28;20024;-42
2021/07/31 07:12:57;;;;;;;2.00;0.73;;;39.40;19.40;;;;;;5054821;28;20365;-40
2021/07/31 07:15:23;;;;;;;1.13;0.73;;;39.60;19.20;;;;;;5054713;28;20192;-40
2021/07/31 07:17:48;;;;;;;1.52;0.70;;;39.80;19.00;;;;;;5054808;28;20032;-40
2021/07/31 07:20:14;;;;;;;0.60;0.60;;;39.90;18.90;;;;;;5054811;28;20480;-40
2021/07/31 07:22:39;;;;;;;1.02;0.70;;;39.80;18.90;;;;;;5053463;28;20047;-40
2021/07/31 07:25:05;;;;;;;2.80;0.80;;;39.50;18.30;;;;;;5054650;28;20037;-40
2021/07/31 07:27:31;;;;;;;0.82;0.65;;;39.60;18.20;;;;;;5054655;28;20056;-40
2021/07/31 07:29:56;;;;;;;1.50;0.90;;;39.50;18.10;;;;;;5054422;28;20087;-40
2021/07/31 07:32:21;;;;;;;1.67;0.68;;;39.60;17.90;;;;;;5054551;28;20025;-40
2021/07/31 07:34:47;;;;;;;1.20;0.63;;;39.60;17.90;;;;;;5054484;28;20029;-42
2021/07/31 07:37:12;;;;;;;0.93;0.60;;;39.90;17.90;;;;;;5054441;28;20158;-40
2021/07/31 07:39:38;;;;;;;2.45;0.75;;;40.20;17.70;;;;;;5053150;28;20029;-40
2021/07/31 07:42:04;;;;;;;1.45;0.75;;;40.40;17.40;;;;;;5054338;28;20044;-40
2021/07/31 07:44:30;;;;;;;2.42;0.77;;;40.30;17.30;;;;;;5054233;28;20041;-41
2021/07/31 07:46:55;;;;;;;1.42;0.70;;;40.30;17.30;;;;;;5054258;28;20032;-40
2021/07/31 07:49:21;;;;;;;1.45;0.60;;;40.50;17.40;;;;;;5054157;28;20374;-40
2021/07/31 07:51:46;;;;;;;0.85;0.63;;;41.10;17.20;;;;;;5054185;28;20029;-40
2021/07/31 07:54:12;;;;;;;1.80;0.88;;;41.30;16.70;;;;;;5052854;28;20120;-40
2021/07/31 07:56:37;;;;;;;3.20;0.80;;;41.50;16.50;;;;;;5054054;28;20036;-40
2021/07/31 07:59:04;;;;;;;0.50;0.40;;;40.60;16.40;;;;;;5053927;28;20033;-40
2021/07/31 08:01:31;;;;;;;0.90;0.63;;;39.50;16.80;;;;;;5053927;28;20033;-41
2021/07/31 08:03:57;;;;;;;2.08;0.80;;;39.50;17.00;;;;;;5054000;28;20053;-42
2021/07/31 08:06:22;;;;;;;1.98;1.00;;;39.50;16.70;;;;;;5053914;28;20021;-41
2021/07/31 08:08:48;;;;;;;3.10;0.93;;;39.60;16.90;;;;;;5052538;28;20059;-41
2021/07/31 08:11:13;;;;;;;3.83;0.90;;;39.50;16.50;;;;;;5052728;28;20033;-40
2021/07/31 08:13:39;;;;;;;1.88;0.80;;;39.70;16.70;;;;;;5053673;28;20455;-41
2021/07/31 08:16:05;;;;;;;0.85;0.75;;;39.20;16.60;;;;;;5053646;28;20108;-40
2021/07/31 08:18:30;;;;;;;2.97;0.73;;;39.20;16.80;;;;;;5053640;28;20032;-40
2021/07/31 08:20:56;;;;;;;1.25;1.00;;;39.60;17.00;;;;;;5053805;28;20036;-41
2021/07/31 08:23:21;;;;;;;2.55;0.93;;;39.80;16.80;;;;;;5052267;28;20033;-39
2021/07/31 08:25:47;;;;;;;1.42;1.08;;;39.40;16.90;;;;;;5053542;28;20052;-40
2021/07/31 08:28:12;;;;;;;2.60;0.95;;;39.10;17.20;;;;;;5053315;28;20025;-40
2021/07/31 08:30:38;;;;;;;1.20;0.80;;;39.40;17.40;;;;;;5053395;28;20060;-42
2021/07/31 08:33:03;;;;;;;2.75;1.00;;;40.20;17.10;;;;;;5053356;28;20024;-42
2021/07/31 08:35:29;;;;;;;1.00;0.90;;;40.70;16.20;;;;;;5053356;28;20032;-41
2021/07/31 08:37:55;;;;;;;3.22;0.98;;;39.90;15.70;;;;;;5052012;28;20618;-42
2021/07/31 08:40:21;;;;;;;1.73;0.80;;;39.60;16.30;;;;;;5053246;28;20051;-42
2021/07/31 08:42:46;;;;;;;0.90;0.80;;;40.00;16.40;;;;;;5053191;28;20051;-40
2021/07/31 08:45:13;;;;;;;0.80;0.57;;;40.10;16.00;;;;;;5053002;28;20040;-40
2021/07/31 08:47:39;;;;;;;2.03;0.63;;;40.50;16.00;;;;;;5053250;28;20531;-40
2021/07/31 08:50:07;;;;;;;0.70;0.60;;;40.60;15.10;;;;;;5053018;28;20043;-41
2021/07/31 08:52:33;;;;;;;1.10;0.60;;;40.50;15.40;;;;;;5052247;28;20100;-41
2021/07/31 08:54:59;;;;;;;2.15;0.68;;;40.40;14.80;;;;;;5053054;28;20032;-40
2021/07/31 08:57:25;;;;;;;1.25;0.90;;;40.20;14.80;;;;;;5053002;28;20074;-41
2021/07/31 08:59:50;;;;;;;1.17;0.70;;;40.50;15.00;;;;;;5052964;28;20029;-40
2021/07/31 09:02:16;;;;;;;3.35;0.80;;;40.80;14.80;;;;;;5052806;28;20084;-40
2021/07/31 09:04:45;;;;;;;1.23;0.63;;;40.40;14.80;;;;;;5052927;28;20181;-42
2021/07/31 09:07:14;;;;;;;2.08;0.70;;;40.00;14.80;;;;;;5052933;28;20060;-40
2021/07/31 09:09:40;;;;;;;1.75;0.75;;;39.50;14.80;;;;;;5051583;28;20420;-39
2021/07/31 09:12:08;;;;;;;1.55;0.80;;;39.40;15.20;;;;;;5052733;28;20021;-40
2021/07/31 09:14:35;;;;;;;1.08;0.60;;;38.70;15.40;;;;;;5052879;28;20476;-40
2021/07/31 09:17:01;;;;;;;1.38;0.80;;;38.10;15.80;;;;;;5052784;28;20025;-41
2021/07/31 09:19:28;;;;;;;1.58;0.80;;;37.50;16.30;;;;;;5052758;28;20025;-40
2021/07/31 09:22:06;;;;;;;1.90;0.90;;;37.10;16.40;;;;;;5052296;28;20491;-41
2021/07/31 09:24:31;;;;;;;0.88;0.75;;;35.60;17.30;;;;;;5051389;28;20102;-40
2021/07/31 09:26:57;;;;;;;2.58;0.82;;;34.80;18.00;;;;;;5052607;28;20461;-39
2021/07/31 09:29:31;;;;;;;2.95;0.93;;;35.40;18.10;;;;;;5052546;28;20028;-40
2021/07/31 09:32:02;;;;;;;1.35;0.80;;;36.30;18.40;;;;;;5052733;28;20029;-39
2021/07/31 09:34:35;;;;;;;1.42;0.77;;;36.60;17.60;;;;;;5052944;28;20028;-40
2021/07/31 09:37:04;;;;;;;1.17;1.08;;;35.20;17.70;;;;;;5052451;28;20025;-40
2021/07/31 09:39:53;;;;;;;2.83;0.90;;;34.90;18.20;;;;;;5051231;28;20461;-41
2021/07/31 09:42:35;;;;;;;1.42;0.70;;;35.50;18.40;;;;;;5052469;28;20033;-40
2021/07/31 09:45:04;;;;;;;1.10;0.70;;;35.40;17.90;;;;;;5052466;28;20029;-40
2021/07/31 09:47:30;;;;;;;1.40;0.90;;;34.40;18.20;;;;;;5052445;28;20099;-41
2021/07/31 09:49:58;;;;;;;2.63;0.73;;;33.20;19.00;;;;;;5052308;28;20507;-39
2021/07/31 09:52:24;;;;;;;1.10;0.90;;;32.30;19.90;;;;;;5052410;28;20014;-40
2021/07/31 09:54:51;;;;;;;1.30;0.77;;;31.70;20.40;;;;;;5051066;28;20025;-39
2021/07/31 09:57:18;;;;;;;0.98;0.85;;;31.80;20.50;;;;;;5052333;28;20049;-39
2021/07/31 09:59:48;;;;;;;7.03;1.10;;;31.50;21.10;;;;;;5052348;28;20035;-40
2021/07/31 10:02:19;;;;;;;5.03;0.90;;;30.90;21.90;;;;;;5052035;28;20073;-39
2021/07/31 10:04:45;;;;;;;1.20;1.00;;;30.90;23.00;;;;;;5052370;28;20104;-39
2021/07/31 10:07:15;;;;;;;1.40;0.90;;;30.90;22.40;;;;;;5052303;28;20112;-39
2021/07/31 10:09:46;;;;;;;5.25;1.42;;;30.70;23.00;;;;;;5050893;28;20021;-39
2021/07/31 10:12:14;;;;;;;3.38;0.90;;;30.20;23.00;;;;;;5052159;28;20021;-39
2021/07/31 10:14:40;;;;;;;1.95;0.80;;;29.80;23.30;;;;;;5052186;28;20044;-39
2021/07/31 10:17:06;;;;;;;2.33;1.08;;;29.70;24.00;;;;;;5052107;28;20025;-41
2021/07/31 10:19:46;;;;;;;1.35;0.70;;;29.70;24.10;;;;;;5052348;28;20109;-39
2021/07/31 10:22:13;;;;;;;3.50;0.85;;;29.60;24.90;;;;;;5052151;28;20479;-40
2021/07/31 10:25:09;;;;;;;3.85;1.00;;;29.70;24.50;;;;;;5050848;28;20509;-39
2021/07/31 10:27:35;;;;;;;3.33;1.13;;;29.50;24.80;;;;;;5047619;28;20049;-39
2021/07/31 10:30:01;;;;;;;0.77;0.60;;;29.30;24.40;;;;;;5052067;28;20055;-41
2021/07/31 10:32:32;;;;;;;3.75;1.10;;;29.40;24.90;;;;;;5052074;28;20025;-39
2021/07/31 10:35:01;;;;;;;1.77;1.00;;;29.50;24.60;;;;;;5053853;28;20044;-39
2021/07/31 10:37:29;;;;;;;7.68;1.52;;;29.40;24.50;;;;;;5054973;28;20040;-41
2021/07/31 10:40:01;;;;;;;1.23;0.82;;;29.30;24.80;;;;;;5055436;28;20100;-41
2021/07/31 10:42:47;;;;;;;2.05;0.80;;;29.20;25.10;;;;;;5055442;28;20032;-39
2021/07/31 10:45:15;;;;;;;;;;;29.00;24.90;;;;;;5055793;28;20040;-38
2021/07/31 10:47:41;;;;;;;2.92;1.00;;;28.70;25.30;;;;;;5055457;28;19948;-38
2021/07/31 10:50:22;;;;;;;1.95;0.95;;;28.50;25.40;;;;;;5055176;28;20036;-39
2021/07/31 10:53:02;;;;;;;0.93;0.50;;;28.10;26.30;;;;;;5054028;28;20086;-39
2021/07/31 10:55:47;;;;;;;3.13;1.00;;;27.80;26.70;;;;;;5055193;28;20020;-39
2021/07/31 10:58:17;;;;;;;1.48;0.75;;;27.50;26.70;;;;;;5055133;28;20103;-39
2021/07/31 11:00:44;;;;;;;2.05;0.70;;;27.40;26.80;;;;;;5055147;28;20109;-39
2021/07/31 11:03:15;;;;;;;1.60;0.95;;;27.50;27.00;;;;;;5054768;28;20083;-39
2021/07/31 11:06:00;;;;;;;3.83;0.80;;;27.70;27.10;;;;;;5055063;28;20020;-41
2021/07/31 11:08:27;;;;;;;1.15;0.60;;;27.90;27.00;;;;;;5053674;28;20025;-39
2021/07/31 11:11:19;;;;;;;0.57;0.57;;;28.00;26.30;;;;;;5054998;28;20108;-39
2021/07/31 11:13:51;;;;;;;1.88;0.57;;;28.00;26.60;;;;;;5052302;28;20037;-39
2021/07/31 11:16:19;;;;;;;0.68;0.50;;;28.00;26.40;;;;;;5054834;28;20052;-41
2021/07/31 11:18:49;;;;;;;2.40;0.90;;;28.00;26.70;;;;;;5055137;28;20428;-39
2021/07/31 11:21:26;;;;;;;2.17;0.93;;;27.80;26.90;;;;;;5054756;28;20025;-38
2021/07/31 11:24:08;;;;;;;1.38;0.82;;;27.80;27.10;;;;;;5053440;28;20035;-41
2021/07/31 11:26:42;;;;;;;0.52;0.52;;;27.80;27.20;;;;;;5054640;28;20039;-39
2021/07/31 11:29:12;;;;;;;1.75;0.68;;;28.00;27.50;;;;;;5054516;28;20036;-39
2021/07/31 11:31:38;;;;;;;6.15;0.82;;;28.00;27.00;;;;;;5054486;28;20044;-39
2021/07/31 11:34:08;;;;;;;2.17;0.70;;;27.90;26.80;;;;;;5054681;28;20127;-40
2021/07/31 11:36:37;;;;;;;2.22;0.60;;;27.90;26.90;;;;;;5054533;28;20444;-39
2021/07/31 11:39:05;;;;;;;3.30;0.80;;;27.90;26.80;;;;;;5053186;28;20029;-39
2021/07/31 11:41:43;;;;;;;1.88;0.70;;;28.00;27.10;;;;;;5054280;28;20029;-39
2021/07/31 11:44:10;;;;;;;1.77;0.80;;;28.00;27.50;;;;;;5054364;28;20033;-39
2021/07/31 11:46:44;;;;;;;0.88;0.70;;;28.10;27.40;;;;;;5053883;28;20029;-39
2021/07/31 11:49:28;;;;;;;7.25;0.95;;;28.00;27.50;;;;;;5054164;28;20468;-40
2021/07/31 11:52:02;;;;;;;2.97;0.80;;;27.90;27.80;;;;;;5054231;28;20095;-39
2021/07/31 11:54:28;;;;;;;8.98;1.20;;;27.60;28.10;;;;;;5052885;28;20469;-39
2021/07/31 11:56:56;;;;;;;1.88;0.95;;;27.40;28.30;;;;;;5053943;28;20452;-39
2021/07/31 11:59:30;;;;;;;1.17;0.68;;;27.10;28.60;;;;;;5053948;28;20036;-38
2021/07/31 12:01:56;;;;;;;0.75;0.68;;;26.90;29.30;;;;;;5053853;28;20528;-40
2021/07/31 12:04:53;;;;;;;1.58;0.63;;;26.80;29.10;;;;;;5053939;28;20098;-39
2021/07/31 12:07:26;;;;;;;1.38;0.60;;;26.80;29.80;;;;;;5053814;28;20160;-39
2021/07/31 12:10:20;;;;;;;4.50;0.90;;;27.00;29.20;;;;;;5053494;28;20055;-39
2021/07/31 12:12:45;;;;;;;3.88;0.90;;;27.00;29.50;;;;;;5053709;28;20100;-39
2021/07/31 12:15:15;;;;;;;0.88;0.57;;;27.00;29.10;;;;;;5053768;28;20032;-39
2021/07/31 12:17:56;;;;;;;1.40;0.70;;;27.00;29.00;;;;;;5053597;28;20043;-39
2021/07/31 12:20:39;;;;;;;5.35;0.57;;;27.20;29.40;;;;;;5053654;28;20060;-39
2021/07/31 12:23:06;;;;;;;2.95;0.90;;;27.20;29.00;;;;;;5052323;28;20424;-41
2021/07/31 12:25:33;;;;;;;2.38;0.60;;;27.10;28.90;;;;;;5053523;28;20021;-39
2021/07/31 12:28:13;;;;;;;1.42;0.57;;;26.90;29.10;;;;;;5053513;28;20029;-39
2021/07/31 12:30:41;;;;;;;2.75;0.65;;;26.80;29.80;;;;;;5053365;28;20025;-39
2021/07/31 12:33:07;;;;;;;3.60;0.80;;;26.70;29.80;;;;;;5053443;28;20035;-39
2021/07/31 12:35:50;;;;;;;1.92;0.80;;;26.60;30.40;;;;;;5053350;28;20033;-39
2021/07/31 12:38:21;;;;;;;3.03;0.60;;;26.50;30.10;;;;;;5051998;28;20033;-38
2021/07/31 12:40:52;;;;;;;2.28;0.60;;;26.50;29.90;;;;;;5053176;28;20031;-38
2021/07/31 12:43:17;;;;;;;2.58;0.70;;;26.50;30.00;;;;;;5053162;28;20028;-38
2021/07/31 12:45:45;;;;;;;1.75;0.65;;;26.60;30.00;;;;;;5053218;28;20384;-41
2021/07/31 12:48:12;;;;;;;2.97;0.70;;;26.60;30.00;;;;;;5053016;28;20029;-39